Time;durP1;ratioP1;P1;durP2;ratioP2;P2;SDS_P1;SDS_P2;PMS_P1;PMS_P2;Temp;Humidity;BMP_temperature;BMP_pressure;BME280_temperature;BME280_humidity;BME280_pressure;Samples;Min_cycle;Max_cycle;Signal;HPM_P1;HPM_P2
2022/05/25 00:00:32;;;;;;;;;;;;;;;14.82;89.62;97482.41;10415061;28;20033;-57
2022/05/25 00:05:30;;;;;;;15.57;12.88;;;;;;;14.75;89.74;97476.47;10419570;28;19912;-57
2022/05/25 00:10:30;;;;;;;19.95;13.57;;;;;;;14.73;89.99;97475.66;10420303;28;20024;-57
2022/05/25 00:15:29;;;;;;;15.45;12.93;;;;;;;14.70;90.14;97486.16;10418363;28;20068;-57
2022/05/25 00:20:28;;;;;;;;;;;;;;;14.70;90.13;97486.16;10418867;28;20036;-58
2022/05/25 00:25:33;;;;;;;16.75;12.70;;;;;;;14.70;89.74;97474.81;10417669;28;20375;-58
2022/05/25 00:30:33;;;;;;;24.65;14.00;;;;;;;14.60;90.45;97479.38;10419397;28;20463;-57
2022/05/25 00:35:37;;;;;;;20.23;13.93;;;;;;;14.55;90.71;97481.25;10418673;28;20075;-57
2022/05/25 00:40:40;;;;;;;16.55;12.90;;;;;;;14.52;90.58;97479.56;10418998;28;20451;-57
2022/05/25 00:45:55;;;;;;;18.02;12.68;;;;;;;14.47;90.70;97483.16;10417390;28;20056;-57
2022/05/25 00:51:12;;;;;;;15.90;12.38;;;;;;;14.45;90.60;97482.31;10418718;28;20106;-57
2022/05/25 00:56:16;;;;;;;15.35;11.82;;;;;;;14.37;91.09;97487.69;10418606;28;20067;-57
2022/05/25 01:01:15;;;;;;;13.40;11.60;;;;;;;14.36;90.81;97489.47;10418531;28;20071;-57
2022/05/25 01:06:33;;;;;;;;;;;;;;;14.36;90.57;97493.81;10419119;28;20079;-57
2022/05/25 01:11:34;;;;;;;14.88;12.68;;;;;;;14.30;90.59;97486.97;10417048;28;19950;-57
2022/05/25 01:16:49;;;;;;;18.27;13.57;;;;;;;14.26;90.42;97485.28;10417760;28;20075;-57
2022/05/25 01:22:12;;;;;;;19.88;14.55;;;;;;;14.17;90.89;97490.69;10416976;28;20055;-57
2022/05/25 01:27:37;;;;;;;20.38;14.35;;;;;;;14.09;91.02;97490.84;10416963;28;20068;-57
2022/05/25 01:32:46;;;;;;;19.25;14.15;;;;;;;14.02;91.48;97498.84;10417929;28;20064;-58
2022/05/25 01:38:04;;;;;;;20.80;14.18;;;;;;;13.91;90.91;97479.03;10417774;28;20479;-57
2022/05/25 01:43:14;;;;;;;18.90;13.85;;;;;;;13.85;91.70;97489.56;10416394;28;20071;-57
2022/05/25 01:48:16;;;;;;;19.40;14.90;;;;;;;13.75;91.99;97491.50;10417463;28;20059;-58
2022/05/25 01:53:17;;;;;;;21.48;15.70;;;;;;;13.65;92.92;97495.13;10416947;28;20073;-57
2022/05/25 01:58:18;;;;;;;23.23;16.58;;;;;;;13.61;92.85;97498.69;10416988;28;20067;-57
2022/05/25 02:08:50;;;;;;;18.30;14.90;;;;;;;13.61;92.71;97503.91;10416130;28;20072;-58
2022/05/25 02:14:01;;;;;;;23.90;16.05;;;;;;;13.61;92.60;97506.53;10413937;28;20048;-57
2022/05/25 02:19:30;;;;;;;23.80;16.55;;;;;;;13.61;92.45;97516.06;10416464;28;20060;-57
2022/05/25 02:24:44;;;;;;;24.55;16.98;;;;;;;13.59;92.54;97513.50;10412330;28;20060;-57
2022/05/25 02:29:47;;;;;;;23.75;16.70;;;;;;;13.57;92.92;97518.75;10420127;28;20063;-57
2022/05/25 02:34:50;;;;;;;24.23;17.02;;;;;;;13.49;93.63;97533.63;10423483;28;20048;-57
2022/05/25 02:39:50;;;;;;;24.42;18.00;;;;;;;13.45;94.05;97541.53;10422603;28;20068;-57
2022/05/25 02:44:50;;;;;;;26.40;15.98;;;;;;;13.40;94.70;97545.91;10421168;28;20529;-57
2022/05/25 02:49:49;;;;;;;20.13;14.40;;;;;;;13.31;95.15;97547.81;10423421;28;20514;-58
2022/05/25 02:54:48;;;;;;;;;;;;;;;13.34;94.57;97559.91;10423999;28;20064;-57
2022/05/25 02:59:47;;;;;;;18.88;14.00;;;;;;;13.36;94.06;97552.94;10423415;28;19912;-58
2022/05/25 03:04:47;;;;;;;23.00;14.85;;;;;;;13.38;93.83;97553.78;10422962;28;20052;-58
2022/05/25 03:09:46;;;;;;;21.25;15.68;;;;;;;13.42;93.91;97547.66;10423050;28;20083;-58
2022/05/25 03:14:45;;;;;;;23.08;16.30;;;;;;;13.45;93.58;97558.00;10406853;28;20048;-58
2022/05/25 03:19:55;;;;;;;20.83;15.73;;;;;;;13.29;94.98;97556.53;10422616;28;20887;-58
2022/05/25 03:24:54;;;;;;;19.90;14.77;;;;;;;13.26;94.66;97572.22;10420325;28;20048;-58
2022/05/25 03:29:53;;;;;;;19.40;13.40;;;;;;;13.08;95.26;97579.41;10422202;28;20046;-58
2022/05/25 03:34:52;;;;;;;16.80;14.13;;;;;;;13.17;94.86;97593.19;10421668;28;20034;-57
2022/05/25 03:39:51;;;;;;;19.02;12.70;;;;;;;13.03;94.50;97543.88;10421860;28;20116;-58
2022/05/25 03:44:50;;;;;;;;;;;;;;;13.49;94.38;97600.53;10420078;28;20063;-58
2022/05/25 03:49:49;;;;;;;15.50;12.32;;;;;;;13.66;93.81;97602.94;10421370;28;19923;-58
2022/05/25 03:54:48;;;;;;;17.20;12.95;;;;;;;13.80;93.19;97608.78;10420202;28;20403;-58
2022/05/25 03:59:47;;;;;;;14.93;12.90;;;;;;;13.80;92.62;97584.41;10420199;28;20083;-58
2022/05/25 04:04:46;;;;;;;;;;;;;;;14.05;92.46;97606.59;10420009;28;20063;-58
2022/05/25 04:09:45;;;;;;;15.32;12.70;;;;;;;14.10;92.03;97601.28;10420820;28;19913;-58
2022/05/25 04:14:44;;;;;;;16.95;13.43;;;;;;;14.08;91.66;97601.34;10380287;28;20029;-58
2022/05/25 04:19:43;;;;;;;15.27;12.15;;;;;;;13.81;92.24;97607.03;10379291;28;20571;-58
2022/05/25 04:24:42;;;;;;;17.13;13.07;;;;;;;13.87;92.11;97605.19;10407274;28;20450;-58
2022/05/25 04:29:41;;;;;;;16.05;13.00;;;;;;;13.95;91.87;97600.69;10419878;28;20468;-58
2022/05/25 04:34:40;;;;;;;19.77;13.77;;;;;;;14.21;91.82;97601.97;10419546;28;20458;-58
2022/05/25 04:39:39;;;;;;;18.13;15.18;;;;;;;14.40;91.60;97595.53;10418058;28;20370;-58
2022/05/25 04:44:38;;;;;;;17.52;14.32;;;;;;;14.60;90.94;97596.91;10407725;28;20119;-58
2022/05/25 04:49:43;;;;;;;17.13;13.77;;;;;;;14.80;90.14;97601.75;10418504;28;20075;-58
2022/05/25 04:54:42;;;;;;;19.17;14.10;;;;;;;14.90;89.11;97586.78;10418094;28;20072;-59
2022/05/25 04:59:41;;;;;;;;;;;;;;;14.99;88.76;97592.66;10419000;28;20028;-58
2022/05/25 05:04:39;;;;;;;20.98;15.40;;;;;;;15.11;88.47;97588.91;10418355;28;19973;-58
2022/05/25 05:09:40;;;;;;;;;;;;;;;15.38;88.63;97594.41;10417426;28;20230;-58
2022/05/25 05:14:38;;;;;;;21.63;16.08;;;;;;;15.63;87.48;97599.94;10406143;28;19940;-58
2022/05/25 05:19:37;;;;;;;20.75;16.17;;;;;;;15.48;87.73;97597.66;10418008;28;20506;-58
2022/05/25 05:24:36;;;;;;;;;;;;;;;15.54;88.33;97608.84;10392816;28;20041;-58
2022/05/25 05:29:35;;;;;;;17.38;14.73;;;;;;;15.78;87.82;97601.31;10410690;28;20034;-59
2022/05/25 05:34:34;;;;;;;;;;;;;;;16.09;87.73;97604.94;10417466;28;20406;-58
2022/05/25 05:39:37;;;;;;;18.55;14.45;;;;;;;16.16;86.75;97586.44;10415650;28;19967;-59
2022/05/25 05:44:51;;;;;;;16.88;13.40;;;;;;;16.37;86.48;97603.34;10414764;28;20067;-58
2022/05/25 05:49:51;;;;;;;18.00;13.77;;;;;;;16.62;85.75;97612.25;10385847;28;20076;-58
2022/05/25 05:54:50;;;;;;;19.35;13.65;;;;;;;16.75;85.07;97614.53;10330127;28;20077;-58
2022/05/25 05:59:49;;;;;;;19.25;14.93;;;;;;;16.98;85.23;97613.91;10328692;28;20072;-58
2022/05/25 06:04:48;;;;;;;16.00;14.30;;;;;;;16.92;85.32;97617.56;10314568;28;20034;-59
2022/05/25 06:09:47;;;;;;;;;;;;;;;17.05;85.04;97624.19;10312697;28;20049;-58
2022/05/25 06:14:45;;;;;;;19.03;13.90;;;;;;;17.23;84.10;97621.91;10341575;28;19913;-58
2022/05/25 06:19:44;;;;;;;17.38;14.00;;;;;;;17.40;83.78;97629.28;10337225;28;20033;-59
2022/05/25 06:24:48;;;;;;;;;;;;;;;17.44;83.04;97636.16;10324531;28;20443;-58
2022/05/25 06:29:48;;;;;;;15.52;12.77;;;;;;;17.73;82.67;97632.59;10339763;28;19952;-58
2022/05/25 06:34:48;;;;;;;15.68;11.85;;;;;;;18.10;82.91;97629.69;10319959;28;20072;-58
2022/05/25 06:39:47;;;;;;;14.98;11.85;;;;;;;18.55;80.96;97622.91;10325010;28;20062;-58
2022/05/25 06:44:46;;;;;;;15.02;11.30;;;;;;;18.83;79.06;97628.09;10302421;28;20452;-58
2022/05/25 07:07:19;;;;;;;14.85;10.65;;;;;;;19.78;72.24;97568.34;10451427;27;20436;-58
2022/05/25 07:12:18;;;;;;;12.40;9.75;;;;;;;20.11;70.27;97573.97;10452229;28;20060;-57
2022/05/25 07:17:17;;;;;;;16.23;11.25;;;;;;;20.28;71.02;97587.28;10449985;28;20063;-58
2022/05/25 07:22:16;;;;;;;12.40;10.07;;;;;;;20.39;71.23;97589.44;10435552;28;20111;-57
2022/05/25 07:27:16;;;;;;;13.52;10.55;;;;;;;20.70;70.99;97591.66;10442799;28;20052;-57
2022/05/25 07:32:15;;;;;;;14.27;10.20;;;;;;;20.88;68.87;97602.28;10452802;28;20521;-57
2022/05/25 07:37:19;;;;;;;13.27;9.40;;;;;;;21.06;68.71;97601.47;10449656;28;20502;-58
2022/05/25 07:42:19;;;;;;;13.43;9.93;;;;;;;21.12;68.12;97601.19;10452705;28;20070;-58
2022/05/25 07:47:18;;;;;;;10.70;9.02;;;;;;;21.47;67.30;97609.25;10450454;28;20474;-58
2022/05/25 07:52:20;;;;;;;12.75;10.05;;;;;;;21.74;66.39;97590.38;10451894;28;20581;-58
2022/05/25 07:57:19;;;;;;;16.88;11.27;;;;;;;22.05;65.80;97600.31;10443344;28;20052;-58
2022/05/25 08:07:41;;;;;;;16.67;9.70;;;;;;;22.66;62.58;97591.03;10414601;28;20496;-58
2022/05/25 08:12:40;;;;;;;16.23;9.57;;;;;;;22.94;62.90;97550.75;10393230;28;20445;-58
2022/05/25 08:17:40;;;;;;;13.23;8.80;;;;;;;23.39;59.75;97577.44;10423525;28;20092;-58
2022/05/25 08:22:39;;;;;;;15.02;9.80;;;;;;;23.44;59.61;97591.28;10401035;28;20075;-58
2022/05/25 08:27:41;;;;;;;12.98;8.63;;;;;;;23.44;59.11;97585.97;10415743;28;20063;-58
2022/05/25 08:32:40;;;;;;;11.18;8.50;;;;;;;23.73;58.23;97591.47;10416400;28;20506;-58
2022/05/25 08:37:41;;;;;;;14.15;9.27;;;;;;;23.97;57.38;97558.25;10422775;28;20056;-58
2022/05/25 08:43:01;;;;;;;11.80;8.75;;;;;;;24.61;56.83;97589.88;10420287;28;20075;-58
2022/05/25 08:48:02;;;;;;;12.68;9.27;;;;;;;24.74;55.24;97596.16;10420030;28;20099;-58
2022/05/25 08:53:02;;;;;;;12.40;8.52;;;;;;;25.10;54.46;97593.03;10410635;28;20064;-58
2022/05/25 08:58:02;;;;;;;11.10;8.60;;;;;;;25.40;53.18;97592.06;10421266;28;20087;-58
2022/05/25 09:03:07;;;;;;;11.73;8.45;;;;;;;25.37;52.78;97596.72;10423838;28;20091;-58
2022/05/25 09:08:26;;;;;;;10.63;8.68;;;;;;;25.13;53.49;97597.31;10402252;28;20075;-58
2022/05/25 09:13:38;;;;;;;10.82;7.90;;;;;;;24.94;52.44;97608.22;10409674;28;20090;-58
2022/05/25 09:18:59;;;;;;;12.18;8.07;;;;;;;24.89;53.19;97611.19;10419413;28;20068;-58
2022/05/25 09:24:02;;;;;;;9.35;7.97;;;;;;;24.84;53.62;97607.91;10414394;28;20052;-58
2022/05/25 09:29:06;;;;;;;10.85;8.32;;;;;;;25.08;54.23;97607.34;10418502;28;20063;-58
2022/05/25 09:34:10;;;;;;;11.52;7.82;;;;;;;25.16;52.48;97618.38;10417997;28;20068;-58
2022/05/25 09:39:20;;;;;;;16.05;8.00;;;;;;;25.22;51.85;97620.66;10417824;28;20099;-58
2022/05/25 09:44:19;;;;;;;10.32;7.80;;;;;;;25.52;51.96;97609.00;10403449;28;20071;-58
2022/05/25 09:49:49;;;;;;;13.45;8.10;;;;;;;25.76;51.80;97595.13;10397915;28;20064;-58
2022/05/25 09:55:10;;;;;;;12.13;7.35;;;;;;;25.88;51.40;97599.66;10408401;28;20075;-58
2022/05/25 10:00:21;;;;;;;11.35;7.78;;;;;;;25.90;50.54;97593.28;10411363;28;20068;-58
2022/05/25 10:05:25;;;;;;;11.05;6.95;;;;;;;26.11;49.34;97577.72;10387090;28;20128;-58
2022/05/25 10:10:36;;;;;;;11.68;7.03;;;;;;;26.52;50.14;97567.91;10383029;28;20075;-58
2022/05/25 10:15:36;;;;;;;13.25;7.18;;;;;;;26.83;48.40;97571.97;10395451;28;20748;-58
2022/05/25 10:20:46;;;;;;;9.85;5.90;;;;;;;26.97;48.50;97565.66;10403747;28;20072;-58
2022/05/25 10:25:49;;;;;;;14.93;6.55;;;;;;;26.99;49.55;97561.94;10396561;28;20056;-58
2022/05/25 10:36:49;;;;;;;7.97;6.20;;;;;;;27.06;48.07;97550.84;10418189;28;20052;-58
2022/05/25 10:41:58;;;;;;;8.20;5.80;;;;;;;27.23;48.08;97563.81;10401573;28;20064;-58
2022/05/25 10:46:58;;;;;;;11.70;6.28;;;;;;;27.38;45.89;97552.06;10397160;28;20068;-58
2022/05/25 10:52:06;;;;;;;8.15;5.43;;;;;;;27.63;45.73;97560.94;10416648;28;20075;-58
2022/05/25 10:57:31;;;;;;;7.68;5.57;;;;;;;27.54;45.51;97561.63;10415911;28;20072;-58
2022/05/25 11:03:02;;;;;;;10.85;7.00;;;;;;;27.66;46.66;97550.06;10417242;28;20086;-58
2022/05/25 11:08:17;;;;;;;10.68;5.50;;;;;;;27.87;44.87;97552.09;10407390;28;20071;-58
2022/05/25 11:13:51;;;;;;;8.90;5.53;;;;;;;27.82;45.28;97550.63;10403227;28;20059;-58
2022/05/25 11:19:21;;;;;;;9.02;6.13;;;;;;;28.11;45.15;97539.63;10390248;28;20122;-58
2022/05/25 11:24:44;;;;;;;10.18;6.13;;;;;;;28.07;45.47;97532.81;10417015;28;20056;-58
2022/05/25 11:29:54;;;;;;;7.88;5.57;;;;;;;28.34;45.14;97553.03;10402954;28;20052;-58
2022/05/25 11:35:07;;;;;;;10.40;5.68;;;;;;;28.01;45.32;97551.94;10399449;28;20071;-58
2022/05/25 11:40:18;;;;;;;10.35;5.80;;;;;;;27.56;47.29;97555.19;10424005;28;20059;-58
2022/05/25 11:45:52;;;;;;;10.57;6.55;;;;;;;27.42;46.98;97558.00;10407124;28;20056;-58
2022/05/25 11:51:16;;;;;;;10.02;6.05;;;;;;;27.65;46.86;97547.50;10420223;28;20075;-58
2022/05/25 11:56:33;;;;;;;12.70;5.75;;;;;;;27.54;44.72;97542.94;10424159;28;20071;-58
2022/05/25 12:01:42;;;;;;;8.85;5.70;;;;;;;27.74;44.62;97539.66;10419849;28;20075;-58
2022/05/25 12:22:18;;;;;;;7.90;5.50;;;;;;;28.54;44.69;97530.97;10447532;27;20437;-70
2022/05/25 12:27:23;;;;;;;7.47;5.82;;;;;;;28.49;45.87;97535.81;10410009;28;20110;-70
2022/05/25 12:32:24;;;;;;;9.38;5.82;;;;;;;28.61;45.74;97524.19;10439584;28;20071;-70
2022/05/25 12:37:45;;;;;;;13.00;6.88;;;;;;;28.89;45.35;97522.03;10451417;28;20056;-70
2022/05/25 12:42:45;;;;;;;8.48;5.40;;;;;;;28.90;43.75;97515.75;10411801;28;20435;-70
2022/05/25 12:53:40;;;;;;;9.30;6.22;;;;;;;29.19;42.88;97512.53;10399749;28;20593;-70
2022/05/25 12:58:51;;;;;;;10.55;6.40;;;;;;;29.34;42.30;97513.97;10396122;28;20102;-70
2022/05/25 13:03:50;;;;;;;9.15;5.88;;;;;;;29.91;41.63;97499.50;10407851;28;20064;-70
2022/05/25 13:08:49;;;;;;;9.60;6.60;;;;;;;29.93;41.63;97502.03;10407080;28;20021;-70
2022/05/25 13:13:48;;;;;;;8.48;6.30;;;;;;;29.12;42.81;97466.75;10407025;28;20136;-70
2022/05/25 13:19:14;;;;;;;11.20;5.88;;;;;;;28.93;43.42;97517.31;10414530;28;20539;-72
2022/05/25 13:24:19;;;;;;;7.57;5.50;;;;;;;28.81;45.37;97503.13;10381507;28;20502;-70
2022/05/25 13:30:01;;;;;;;8.50;6.45;;;;;;;28.59;45.69;97518.09;10379892;28;20631;-70
2022/05/25 13:35:13;;;;;;;9.70;6.32;;;;;;;28.18;47.68;97486.66;10379236;28;20513;-70
2022/05/25 13:40:12;;;;;;;9.05;6.10;;;;;;;28.39;46.85;97500.16;10377547;28;20064;-70
2022/05/25 13:45:18;;;;;;;10.27;5.50;;;;;;;28.42;47.21;97489.22;10379664;28;20568;-70
2022/05/25 13:50:32;;;;;;;8.63;6.22;;;;;;;28.26;45.83;97468.22;10377757;28;20068;-70
2022/05/25 13:55:35;;;;;;;12.10;5.80;;;;;;;28.62;47.36;97509.88;10380204;28;20483;-70
2022/05/25 14:00:41;;;;;;;9.32;6.22;;;;;;;28.40;47.40;97521.34;10378412;28;20080;-70
2022/05/25 14:05:50;;;;;;;11.23;6.63;;;;;;;28.34;49.67;97527.19;10380268;28;20060;-70
2022/05/25 14:11:00;;;;;;;11.65;6.95;;;;;;;28.00;50.61;97513.72;10380946;28;20067;-70
2022/05/25 14:16:13;;;;;;;8.63;6.50;;;;;;;27.40;52.61;97520.81;10419163;28;20076;-70
2022/05/25 14:21:27;;;;;;;10.73;6.28;;;;;;;26.99;54.20;97529.13;10416585;28;20060;-70
2022/05/25 14:26:29;;;;;;;9.95;6.55;;;;;;;26.58;55.12;97527.53;10380635;28;20064;-70
2022/05/25 14:31:28;;;;;;;13.30;7.05;;;;;;;26.43;55.65;97473.59;10385098;28;20056;-70
2022/05/25 14:36:27;;;;;;;8.65;6.50;;;;;;;26.84;55.59;97528.44;10419901;28;20068;-70
2022/05/25 14:41:29;;;;;;;10.85;6.95;;;;;;;26.67;55.61;97524.22;10416294;28;20060;-70
2022/05/25 14:46:38;;;;;;;11.98;6.70;;;;;;;26.80;55.58;97526.91;10419621;28;20056;-70
2022/05/25 14:51:44;;;;;;;11.15;7.00;;;;;;;26.77;55.65;97519.13;10387564;28;20082;-70
2022/05/25 14:56:48;;;;;;;9.70;6.82;;;;;;;27.03;55.29;97527.13;10414502;28;20068;-70
2022/05/25 15:01:55;;;;;;;25.63;7.53;;;;;;;27.26;54.94;97525.44;10399940;28;20060;-69
2022/05/25 15:06:56;;;;;;;9.10;6.70;;;;;;;27.50;54.04;97533.50;10376133;28;20064;-70
2022/05/25 15:12:19;;;;;;;12.40;6.97;;;;;;;27.58;53.50;97523.13;10385686;28;20523;-70
2022/05/25 15:22:44;;;;;;;10.55;6.78;;;;;;;27.97;51.67;97505.09;10385849;28;20068;-70
2022/05/25 15:28:03;;;;;;;9.60;5.97;;;;;;;28.05;51.42;97526.69;10373390;28;20067;-70
2022/05/25 15:33:02;;;;;;;10.70;6.38;;;;;;;27.87;51.22;97490.75;10393378;28;20084;-70
2022/05/25 15:38:06;;;;;;;11.95;6.22;;;;;;;27.93;50.34;97516.97;10388836;28;20068;-69
2022/05/25 15:43:07;;;;;;;10.23;6.60;;;;;;;28.00;51.70;97536.88;10390838;28;20636;-69
2022/05/25 15:48:11;;;;;;;10.13;6.50;;;;;;;27.89;51.30;97537.66;10371277;28;20412;-70
2022/05/25 15:53:11;;;;;;;10.93;6.65;;;;;;;27.72;51.89;97522.94;10368013;28;20146;-70
2022/05/25 15:58:10;;;;;;;8.77;6.90;;;;;;;27.58;51.13;97541.78;10369566;28;20045;-70
2022/05/25 16:03:24;;;;;;;10.70;6.60;;;;;;;27.54;51.40;97517.19;10369697;28;20498;-69
2022/05/25 16:13:48;;;;;;;9.40;6.10;;;;;;;27.69;52.60;97536.50;10370111;28;20068;-69
2022/05/25 16:18:48;;;;;;;9.73;6.47;;;;;;;27.51;52.40;97519.19;10367588;28;20076;-69
2022/05/25 16:23:47;;;;;;;11.57;6.60;;;;;;;27.24;52.80;97480.28;10376789;28;20103;-69
2022/05/25 16:28:49;;;;;;;10.93;7.10;;;;;;;27.44;52.35;97549.91;10368012;28;20060;-70
2022/05/25 16:33:49;;;;;;;11.65;6.47;;;;;;;26.87;54.73;97525.53;10370678;28;20071;-69
2022/05/25 16:38:50;;;;;;;10.80;7.82;;;;;;;26.83;55.12;97561.31;10362597;28;20600;-70
2022/05/25 16:43:49;;;;;;;10.27;7.90;;;;;;;26.86;55.78;97554.91;10364296;28;20067;-68
2022/05/25 16:48:49;;;;;;;12.02;8.85;;;;;;;26.73;56.51;97545.09;10369138;28;20033;-69
2022/05/25 16:53:50;;;;;;;11.93;8.27;;;;;;;26.58;56.57;97536.41;10368816;28;20131;-69
2022/05/25 16:58:50;;;;;;;9.43;7.05;;;;;;;26.63;57.28;97553.84;10371553;28;20162;-70
2022/05/25 17:03:49;;;;;;;9.60;7.43;;;;;;;26.29;57.88;97543.72;10375219;28;20060;-69
2022/05/25 17:08:49;;;;;;;11.35;7.22;;;;;;;26.21;58.69;97558.50;10370751;28;20056;-69
2022/05/25 17:13:49;;;;;;;12.50;7.60;;;;;;;26.06;59.16;97571.81;10372822;28;20487;-70
2022/05/25 17:24:10;;;;;;;12.77;8.02;;;;;;;25.67;60.11;97570.03;10374420;28;20065;-70
2022/05/25 17:29:12;;;;;;;12.57;7.57;;;;;;;25.66;60.52;97581.59;10371344;28;20135;-69
2022/05/25 17:34:12;;;;;;;12.05;8.93;;;;;;;25.52;60.83;97585.09;10386208;28;20063;-69
2022/05/25 17:44:32;;;;;;;14.63;9.73;;;;;;;25.08;63.37;97583.47;10380185;28;20060;-69
2022/05/25 17:49:33;;;;;;;18.33;13.73;;;;;;;24.85;64.31;97587.53;10387128;28;20139;-69
2022/05/25 17:54:33;;;;;;;21.08;15.43;;;;;;;24.52;65.12;97585.13;10381866;28;20509;-69
2022/05/25 17:59:39;;;;;;;26.90;16.50;;;;;;;24.19;65.61;97562.31;10380010;28;20183;-68
2022/05/25 18:04:38;;;;;;;22.10;17.15;;;;;;;23.97;65.84;97563.56;10351828;28;20069;-68
2022/05/25 18:09:41;;;;;;;27.70;19.05;;;;;;;23.90;66.11;97583.41;10377624;28;20060;-67
2022/05/25 18:14:50;;;;;;;27.27;20.20;;;;;;;23.69;66.69;97595.25;10377069;28;20486;-68
2022/05/25 18:19:49;;;;;;;32.80;20.38;;;;;;;23.47;67.13;97596.44;10390191;28;20079;-68
2022/05/25 18:24:48;;;;;;;34.90;22.80;;;;;;;23.20;67.72;97589.03;10412829;28;20056;-67
2022/05/25 18:29:47;;;;;;;30.65;19.77;;;;;;;22.98;68.47;97599.09;10388790;28;20067;-68
2022/05/25 18:34:48;;;;;;;32.50;21.85;;;;;;;22.89;69.39;97626.06;10401854;28;20025;-68
2022/05/25 18:39:48;;;;;;;27.77;17.45;;;;;;;22.80;70.04;97635.31;10390018;28;20090;-68
2022/05/25 18:44:52;;;;;;;21.95;16.33;;;;;;;22.59;70.54;97618.75;10414035;28;20067;-68
2022/05/25 18:49:51;;;;;;;25.00;17.58;;;;;;;22.65;71.40;97658.13;10389704;28;20052;-68
2022/05/25 18:54:50;;;;;;;18.75;15.48;;;;;;;22.41;72.63;97649.63;10415489;28;20047;-69
2022/05/25 18:59:49;;;;;;;19.77;13.88;;;;;;;22.06;74.26;97672.53;10370239;28;20021;-67
2022/05/25 19:04:48;;;;;;;20.77;13.05;;;;;;;21.63;76.67;97793.38;10369811;28;20515;-68
2022/05/25 19:09:47;;;;;;;20.33;12.20;;;;;;;21.46;77.39;97751.91;10371973;28;20063;-68
2022/05/25 19:14:46;;;;;;;22.73;13.63;;;;;;;21.50;76.71;97767.53;10373376;28;20043;-68
2022/05/25 19:19:45;;;;;;;24.25;13.60;;;;;;;21.48;77.20;97761.47;10373208;28;20116;-68
2022/05/25 19:24:47;;;;;;;20.02;13.88;;;;;;;21.52;77.53;97748.97;10372524;28;20037;-68
2022/05/25 19:29:46;;;;;;;21.45;13.75;;;;;;;21.28;77.39;97700.78;10388864;28;20071;-68
2022/05/25 19:34:45;;;;;;;24.52;15.55;;;;;;;21.42;77.41;97713.38;10354429;28;20041;-68
2022/05/25 19:39:54;;;;;;;20.77;15.63;;;;;;;21.33;77.60;97727.81;10350155;28;20472;-68
2022/05/25 19:44:54;;;;;;;21.90;15.50;;;;;;;21.24;77.36;97736.16;10332942;28;20065;-68
2022/05/25 19:55:11;;;;;;;23.60;16.75;;;;;;;21.27;75.92;97699.94;10371148;28;20510;-68
2022/05/25 20:00:16;;;;;;;24.80;16.17;;;;;;;21.18;75.09;97673.06;10378707;28;20123;-68
2022/05/25 20:05:16;;;;;;;24.63;17.15;;;;;;;21.19;74.26;97674.78;10355491;28;20060;-69
2022/05/25 20:10:15;;;;;;;24.98;15.43;;;;;;;21.22;74.38;97669.38;10356385;28;20053;-69
2022/05/25 20:15:15;;;;;;;21.90;14.65;;;;;;;21.25;74.43;97661.34;10352473;28;20065;-69
2022/05/25 20:20:17;;;;;;;23.02;15.60;;;;;;;21.31;73.80;97666.31;10379576;28;20520;-69
2022/05/25 20:25:17;;;;;;;22.73;15.98;;;;;;;21.32;72.78;97662.78;10396810;28;20153;-69
2022/05/25 20:30:21;;;;;;;22.35;15.77;;;;;;;21.24;74.53;97660.50;10370495;28;20079;-69
2022/05/25 20:35:20;;;;;;;22.20;15.55;;;;;;;21.13;76.82;97660.94;10373720;28;20068;-69
2022/05/25 20:40:21;;;;;;;18.98;14.77;;;;;;;20.80;79.40;97631.66;10401604;28;20051;-69
2022/05/25 20:45:20;;;;;;;22.50;15.55;;;;;;;20.64;79.01;97618.28;10400383;28;20069;-68
2022/05/25 20:50:19;;;;;;;22.38;15.32;;;;;;;20.70;79.39;97647.03;10387270;28;20071;-68
2022/05/25 20:55:19;;;;;;;18.63;13.80;;;;;;;20.68;79.67;97653.25;10392317;28;20032;-69
2022/05/25 21:00:26;;;;;;;18.70;13.70;;;;;;;20.58;79.48;97647.53;10363523;28;20116;-69
2022/05/25 21:05:25;;;;;;;25.20;14.75;;;;;;;20.61;78.98;97652.69;10387209;28;20075;-69
2022/05/25 21:10:24;;;;;;;20.58;14.85;;;;;;;20.53;78.88;97646.88;10403602;28;20035;-69
2022/05/25 21:15:24;;;;;;;21.38;13.65;;;;;;;20.38;77.58;97629.06;10417402;28;20048;-69
2022/05/25 21:20:23;;;;;;;26.30;14.88;;;;;;;20.46;75.20;97645.44;10375889;28;20077;-69
2022/05/25 21:25:22;;;;;;;30.98;17.77;;;;;;;20.56;73.65;97630.91;10375330;28;20052;-69
2022/05/25 21:35:43;;;;;;;24.77;16.33;;;;;;;20.76;71.55;97605.47;10372822;28;20060;-69
2022/05/25 21:40:43;;;;;;;25.05;17.10;;;;;;;20.86;71.83;97620.81;10418623;28;20062;-69
2022/05/25 21:49:51;;;;;;;21.00;14.75;;;;;;;20.72;74.29;97633.75;10416028;28;20060;-68
2022/05/25 21:51:01;;;;;;;23.63;16.25;;;;;;;20.58;74.87;97636.13;10418459;28;20059;-69
2022/05/25 21:56:00;;;;;;;26.67;17.58;;;;;;;20.54;74.54;97622.25;10388573;28;20115;-68
2022/05/25 22:00:59;;;;;;;21.50;14.70;;;;;;;20.33;74.80;97600.28;10371641;28;20061;-69
2022/05/25 22:05:58;;;;;;;20.45;14.30;;;;;;;20.38;75.12;97626.44;10394457;28;20037;-69
2022/05/25 22:10:57;;;;;;;20.73;13.93;;;;;;;20.06;76.00;97597.88;10380021;28;20067;-69
2022/05/25 22:15:56;;;;;;;22.15;14.35;;;;;;;20.12;76.28;97631.03;10417426;28;20051;-68
2022/05/25 22:20:55;;;;;;;18.48;13.02;;;;;;;19.80;78.05;97601.56;10414315;28;20045;-68
2022/05/25 22:25:54;;;;;;;18.80;12.50;;;;;;;19.93;77.68;97627.41;10415522;28;20027;-68
2022/05/25 22:30:53;;;;;;;18.17;13.68;;;;;;;19.96;77.67;97633.41;10414633;28;20482;-67
2022/05/25 22:35:52;;;;;;;17.88;12.40;;;;;;;19.94;77.86;97632.63;10404916;28;20029;-68
2022/05/25 22:40:51;;;;;;;19.27;13.20;;;;;;;19.84;78.00;97629.50;10372681;28;20021;-68
2022/05/25 22:45:50;;;;;;;21.38;12.43;;;;;;;19.84;77.97;97645.31;10385969;28;20819;-67
2022/05/25 22:50:49;;;;;;;19.25;12.63;;;;;;;19.74;77.45;97620.25;10372119;28;20571;-67
2022/05/25 22:55:59;;;;;;;19.50;13.13;;;;;;;19.71;77.07;97616.91;10375048;28;20391;-68
2022/05/25 23:00:58;;;;;;;19.35;12.80;;;;;;;19.80;76.92;97640.22;10374956;28;20053;-69
2022/05/25 23:05:58;;;;;;;21.00;14.23;;;;;;;19.63;77.01;97617.22;10383235;28;20111;-68
2022/05/25 23:10:57;;;;;;;21.00;12.65;;;;;;;19.53;77.52;97640.34;10374469;28;20055;-69
2022/05/25 23:16:05;;;;;;;22.63;14.18;;;;;;;19.49;77.70;97653.72;10373927;28;20063;-69
2022/05/25 23:21:05;;;;;;;24.30;15.35;;;;;;;19.45;77.78;97655.59;10375268;28;20076;-69
2022/05/25 23:26:04;;;;;;;24.02;15.90;;;;;;;19.39;78.10;97654.06;10374080;28;20068;-69
2022/05/25 23:31:06;;;;;;;24.80;15.23;;;;;;;19.37;78.17;97674.31;10374643;28;20029;-68
2022/05/25 23:36:14;;;;;;;24.02;15.13;;;;;;;19.38;77.80;97677.78;10386545;28;20098;-68
2022/05/25 23:46:32;;;;;;;25.00;16.33;;;;;;;19.62;76.67;97683.91;10361263;28;20057;-69
2022/05/25 23:51:33;;;;;;;27.15;15.77;;;;;;;19.81;73.37;97686.69;10372982;28;20071;-69
2022/05/25 23:56:32;;;;;;;24.92;16.10;;;;;;;20.05;70.36;97674.34;10374639;28;20062;-69
